Terminal Aerodrome Forecast
Issued by NWS

Home | Current Version | Previous Version | Graphics & Text | Print | Product List | Glossary On
Versions: 1 2 3 4 5 6 7 8 9 10 11 12 13 14 15 16 17 18 19 20 21 22 23 24 25 26 27 28 29 30 31 32 33 34 35 36 37 38 39 40 41 42 43 44
000
FTUS43 KGRB 211454 AAA
TAFATW
TAF AMD
KATW 211454Z 2115/2212 VRB03KT 3SM BR BKN250
      TEMPO 2115/2116 1SM BR
     FM211800 06006KT P6SM BKN200
     FM212200 06005KT P6SM OVC080
     FM220500 04008KT 5SM -RASN BR OVC012
     FM220800 03012KT 1SM -RASN BR OVC004=

USA.gov is the U.S. government's official web portal to all federal, state and local government web resources and services.